createdAt,value
2022-11-21T00:01:23.209Z,86.48
2022-11-21T00:03:51.244Z,86.54
2022-11-21T00:06:20.541Z,86.59
2022-11-21T00:08:48.577Z,86.75
2022-11-21T00:11:17.006Z,86.88
2022-11-21T00:13:45.464Z,86.84
2022-11-21T00:16:15.511Z,86.77
2022-11-21T00:18:44.579Z,86.89
2022-11-21T00:21:17.682Z,86.91
2022-11-21T00:23:46.996Z,86.47
2022-11-21T00:26:15.764Z,86.31
2022-11-21T00:28:44.275Z,86.17
2022-11-21T00:31:23.049Z,86.12
2022-11-21T00:33:51.291Z,86.16
2022-11-21T00:36:19.429Z,86.09
2022-11-21T00:38:47.497Z,86.06
2022-11-21T00:41:15.847Z,85.94
2022-11-21T00:43:44.049Z,85.81
2022-11-21T00:46:11.983Z,85.65
2022-11-21T00:48:40.048Z,85.64
2022-11-21T00:51:08.402Z,85.50
2022-11-21T00:53:36.568Z,85.23
2022-11-21T00:56:04.845Z,85.04
2022-11-21T00:58:32.933Z,85.02
2022-11-21T01:01:10.740Z,84.87
2022-11-21T01:03:40.653Z,84.71
2022-11-21T01:06:12.020Z,84.66
2022-11-21T01:08:43.001Z,84.59
2022-11-21T01:11:15.383Z,84.42
2022-11-21T01:13:44.072Z,84.29
2022-11-21T01:16:24.169Z,84.10
2022-11-21T01:18:52.495Z,84.28
2022-11-21T01:21:29.853Z,84.24
2022-11-21T01:24:01.963Z,84.25
2022-11-21T01:26:33.080Z,84.27
2022-11-21T01:29:01.043Z,84.05
2022-11-21T01:31:30.384Z,84.01
2022-11-21T01:34:00.227Z,84.09
2022-11-21T01:36:31.630Z,84.33
2022-11-21T01:39:02.576Z,84.80
2022-11-21T01:41:36.285Z,84.90
2022-11-21T01:44:20.811Z,84.78
2022-11-21T01:46:49.704Z,84.54
2022-11-21T01:49:27.292Z,84.32
2022-11-21T01:52:07.684Z,84.13
2022-11-21T01:54:41.892Z,84.01
2022-11-21T01:57:17.706Z,83.92
2022-11-21T01:59:49.115Z,83.73
2022-11-21T02:02:21.091Z,83.73
2022-11-21T02:04:51.000Z,83.94
2022-11-21T02:07:23.178Z,84.02
2022-11-21T02:09:56.108Z,83.89
2022-11-21T02:12:31.063Z,83.87
2022-11-21T02:14:59.655Z,84.09
2022-11-21T02:17:30.079Z,83.98
2022-11-21T02:20:02.964Z,83.92
2022-11-21T02:22:45.631Z,84.14
2022-11-21T02:25:18.477Z,84.57
2022-11-21T02:27:54.008Z,84.42
2022-11-21T02:30:22.973Z,84.51
2022-11-21T02:32:50.894Z,84.75
2022-11-21T02:35:19.762Z,84.52
2022-11-21T02:37:53.756Z,84.49
2022-11-21T02:40:26.759Z,84.48
2022-11-21T02:43:11.414Z,84.63
2022-11-21T02:45:44.456Z,84.70
2022-11-21T02:48:13.600Z,84.77
2022-11-21T02:50:44.819Z,84.61
2022-11-21T02:53:15.893Z,84.58
2022-11-21T02:55:44.673Z,84.78
2022-11-21T02:58:13.124Z,84.97
2022-11-21T03:00:43.126Z,84.66
2022-11-21T03:03:11.669Z,84.61
2022-11-21T03:05:40.451Z,84.98
2022-11-21T03:08:08.330Z,84.85
2022-11-21T03:10:37.066Z,84.86
2022-11-21T03:13:05.310Z,84.87
2022-11-21T03:15:34.628Z,85.02
2022-11-21T03:18:03.158Z,85.15
2022-11-21T03:20:34.558Z,85.06
2022-11-21T03:23:03.610Z,84.95
2022-11-21T03:25:31.616Z,85.11
2022-11-21T03:27:59.647Z,85.20
2022-11-21T03:30:27.716Z,85.47
2022-11-21T03:32:57.223Z,85.53
2022-11-21T03:35:25.817Z,85.04
2022-11-21T03:37:53.783Z,84.86
2022-11-21T03:40:21.717Z,84.71
2022-11-21T03:42:49.825Z,84.42
2022-11-21T03:45:17.899Z,84.29
2022-11-21T03:47:46.010Z,84.14
2022-11-21T03:50:18.530Z,84.02
2022-11-21T03:52:46.517Z,83.84
2022-11-21T03:55:15.512Z,83.71
2022-11-21T03:57:43.583Z,84.09
2022-11-21T04:00:12.949Z,84.04
2022-11-21T04:02:40.816Z,83.76
2022-11-21T04:05:09.229Z,83.85
2022-11-21T04:07:37.322Z,83.94
2022-11-21T04:10:06.107Z,83.94
2022-11-21T04:12:34.052Z,83.99
2022-11-21T04:15:02.206Z,83.95
2022-11-21T04:17:32.048Z,84.37
2022-11-21T04:19:59.984Z,84.37
2022-11-21T04:22:28.080Z,84.91
2022-11-21T04:24:56.059Z,85.55
2022-11-21T04:27:24.014Z,84.90
2022-11-21T04:29:51.948Z,85.06
2022-11-21T04:32:19.860Z,84.85
2022-11-21T04:34:47.929Z,84.76
2022-11-21T04:37:16.059Z,84.76
2022-11-21T04:39:44.078Z,84.65
2022-11-21T04:42:12.049Z,84.54
2022-11-21T04:44:40.020Z,84.44
2022-11-21T04:47:07.960Z,84.52
2022-11-21T04:49:36.059Z,84.34
2022-11-21T04:52:04.292Z,84.23
2022-11-21T04:54:32.453Z,84.06
2022-11-21T04:57:00.485Z,83.78
2022-11-21T04:59:28.484Z,83.69
2022-11-21T05:01:56.623Z,83.60
2022-11-21T05:04:24.775Z,83.63
2022-11-21T05:06:52.845Z,83.64
2022-11-21T05:09:21.040Z,83.65
2022-11-21T05:12:07.347Z,83.82
2022-11-21T05:14:35.308Z,83.84
2022-11-21T05:17:03.480Z,83.97
2022-11-21T05:19:31.623Z,84.10
2022-11-21T05:21:59.625Z,84.00
2022-11-21T05:24:27.799Z,83.96
2022-11-21T05:26:56.122Z,83.90
2022-11-21T05:29:28.067Z,83.77
2022-11-21T05:31:56.533Z,83.92
2022-11-21T05:34:24.592Z,83.90
2022-11-21T05:36:59.118Z,83.83
2022-11-21T05:39:27.494Z,83.83
2022-11-21T05:42:01.341Z,83.78
2022-11-21T05:44:31.026Z,83.86
2022-11-21T05:46:59.214Z,83.67
2022-11-21T05:49:27.407Z,83.67
2022-11-21T05:51:55.440Z,83.82
2022-11-21T05:54:23.614Z,83.74
2022-11-21T05:56:51.547Z,83.69
2022-11-21T05:59:19.565Z,83.62
2022-11-21T06:02:05.918Z,83.71
2022-11-21T06:04:35.124Z,83.79
2022-11-21T06:07:03.481Z,83.90
2022-11-21T06:09:31.605Z,83.88
2022-11-21T06:11:59.553Z,83.93
2022-11-21T06:14:28.214Z,84.07
2022-11-21T06:16:56.537Z,84.06
2022-11-21T06:19:24.600Z,84.14
2022-11-21T06:21:52.680Z,84.23
2022-11-21T06:24:22.381Z,84.28
2022-11-21T06:26:50.585Z,84.45
2022-11-21T06:29:18.609Z,84.78
2022-11-21T06:31:46.614Z,84.97
2022-11-21T06:34:14.722Z,85.16
2022-11-21T06:36:44.675Z,85.28
2022-11-21T06:39:12.664Z,85.10
2022-11-21T06:41:40.738Z,84.90
2022-11-21T06:44:09.012Z,85.11
2022-11-21T06:46:36.875Z,85.10
2022-11-21T06:49:04.986Z,84.91
2022-11-21T06:51:33.017Z,84.78
2022-11-21T06:54:01.192Z,84.79
2022-11-21T06:56:31.524Z,84.88
2022-11-21T06:59:00.213Z,84.97
2022-11-21T07:01:28.311Z,84.84
2022-11-21T07:03:56.559Z,85.24
2022-11-21T07:06:24.835Z,85.52
2022-11-21T07:09:31.209Z,85.48
2022-11-21T07:11:45.496Z,85.61
2022-11-21T07:14:13.417Z,85.29
2022-11-21T07:16:41.337Z,85.27
2022-11-21T07:19:09.362Z,85.25
2022-11-21T07:21:37.838Z,85.34
2022-11-21T07:24:06.534Z,85.25
2022-11-21T07:26:34.595Z,85.85
2022-11-21T07:29:02.779Z,85.76
2022-11-21T07:31:30.668Z,86.30
2022-11-21T07:33:58.816Z,86.47
2022-11-21T07:36:26.809Z,86.66
2022-11-21T07:38:55.000Z,86.84
2022-11-21T07:41:23.128Z,86.68
2022-11-21T07:43:51.309Z,87.10
2022-11-21T07:46:19.280Z,87.25
2022-11-21T07:48:47.249Z,87.59
2022-11-21T07:51:15.215Z,87.48
2022-11-21T07:53:43.135Z,87.55
2022-11-21T07:56:11.566Z,87.67
2022-11-21T07:58:39.644Z,87.49
2022-11-21T08:01:08.240Z,87.52
2022-11-21T08:03:36.286Z,87.42
2022-11-21T08:06:05.199Z,87.67
2022-11-21T08:08:33.258Z,87.69
2022-11-21T08:11:05.813Z,87.55
2022-11-21T08:13:35.033Z,87.70
2022-11-21T08:16:04.508Z,87.38
2022-11-21T08:18:33.456Z,87.45
2022-11-21T08:21:03.551Z,87.49
2022-11-21T08:23:32.537Z,87.58
2022-11-21T08:26:00.718Z,87.62
2022-11-21T08:28:28.975Z,87.50
2022-11-21T08:30:56.957Z,86.81
2022-11-21T08:33:25.121Z,86.60
2022-11-21T08:35:53.012Z,86.49
2022-11-21T08:38:21.291Z,86.47
2022-11-21T08:41:13.365Z,86.61
2022-11-21T08:43:44.412Z,86.41
2022-11-21T08:46:12.431Z,86.21
2022-11-21T08:48:40.501Z,86.00
2022-11-21T08:51:08.770Z,86.30
2022-11-21T08:53:36.810Z,86.01
2022-11-21T08:56:04.930Z,85.75
2022-11-21T08:58:33.300Z,85.61
2022-11-21T09:01:01.420Z,86.04
2022-11-21T09:03:31.261Z,86.05
2022-11-21T09:06:00.607Z,85.98
2022-11-21T09:08:30.603Z,85.88
2022-11-21T09:10:59.061Z,85.64
2022-11-21T09:13:27.674Z,85.33
2022-11-21T09:16:20.223Z,85.07
2022-11-21T09:18:52.615Z,85.12
2022-11-21T09:21:21.584Z,84.92
2022-11-21T09:23:49.459Z,84.87
2022-11-21T09:26:17.305Z,84.94
2022-11-21T09:28:45.486Z,84.89
2022-11-21T09:31:15.368Z,84.68
2022-11-21T09:33:45.114Z,84.54
2022-11-21T09:36:13.188Z,84.32
2022-11-21T09:38:41.357Z,84.16
2022-11-21T09:41:45.476Z,83.88
2022-11-21T09:44:24.876Z,83.22
2022-11-21T09:47:03.233Z,83.15
2022-11-21T09:49:39.505Z,83.43
2022-11-21T09:52:11.256Z,83.46
2022-11-21T09:54:48.090Z,83.80
2022-11-21T09:57:21.735Z,83.81
2022-11-21T09:59:52.101Z,83.98
2022-11-21T10:02:23.071Z,84.10
2022-11-21T10:04:52.601Z,84.05
2022-11-21T10:07:32.109Z,84.13
2022-11-21T10:10:18.132Z,84.09
2022-11-21T10:12:49.212Z,84.00
2022-11-21T10:15:38.255Z,84.07
2022-11-21T10:18:09.388Z,84.24
2022-11-21T10:21:06.655Z,84.58
2022-11-21T10:24:12.607Z,84.68
2022-11-21T10:26:54.903Z,84.50
2022-11-21T10:29:35.990Z,84.29
2022-11-21T10:32:22.501Z,84.45
2022-11-21T10:34:56.319Z,84.54
2022-11-21T10:37:33.578Z,84.35
2022-11-21T10:40:32.932Z,84.45
2022-11-21T10:43:33.118Z,84.34
2022-11-21T10:46:00.990Z,84.14
2022-11-21T10:48:29.104Z,84.05
2022-11-21T10:51:26.002Z,83.90
2022-11-21T10:54:26.824Z,84.16
2022-11-21T10:57:13.044Z,84.05
2022-11-21T10:59:41.184Z,83.74
2022-11-21T11:02:12.350Z,83.64
2022-11-21T11:04:47.404Z,83.59
2022-11-21T11:07:28.493Z,83.77
2022-11-21T11:10:26.869Z,83.40
2022-11-21T11:16:04.569Z,83.98
2022-11-21T11:18:35.300Z,84.00
2022-11-21T11:21:25.081Z,83.84
2022-11-21T11:23:54.746Z,83.48
2022-11-21T11:26:22.867Z,83.43
2022-11-21T11:28:51.043Z,83.50
2022-11-21T11:31:19.072Z,83.35
2022-11-21T11:33:47.291Z,83.28
2022-11-21T11:36:37.481Z,83.21
2022-11-21T11:39:18.652Z,83.05
2022-11-21T11:42:28.720Z,82.15
2022-11-21T11:45:30.890Z,82.16
2022-11-21T11:48:04.713Z,81.81
2022-11-21T11:50:50.520Z,81.21
2022-11-21T11:53:35.243Z,81.16
2022-11-21T11:56:19.907Z,81.69
2022-11-21T11:58:54.114Z,81.36
2022-11-21T12:01:34.590Z,80.90
2022-11-21T12:04:10.750Z,80.04
2022-11-21T12:07:59.570Z,80.10
2022-11-21T12:10:06.907Z,80.06
2022-11-21T12:12:47.867Z,79.75
2022-11-21T12:15:40.314Z,79.74
2022-11-21T12:18:20.387Z,79.99
2022-11-21T12:21:00.210Z,79.81
2022-11-21T12:23:32.872Z,79.90
2022-11-21T12:26:34.853Z,80.01
2022-11-21T12:29:05.811Z,79.54
2022-11-21T12:31:40.124Z,79.69
2022-11-21T12:34:27.068Z,79.25
2022-11-21T12:37:14.032Z,78.77
2022-11-21T12:40:08.902Z,79.08
2022-11-21T12:43:02.192Z,79.15
2022-11-21T12:45:47.207Z,79.04
2022-11-21T12:48:52.585Z,79.18
2022-11-21T12:52:07.339Z,79.12
2022-11-21T12:55:02.076Z,79.37
2022-11-21T12:57:45.211Z,79.70
2022-11-21T13:00:53.027Z,79.35
2022-11-21T13:03:40.593Z,79.19
2022-11-21T13:06:16.152Z,78.84
2022-11-21T13:08:47.129Z,79.24
2022-11-21T13:11:42.752Z,79.57
2022-11-21T13:14:20.353Z,79.69
2022-11-21T13:17:17.884Z,79.48
2022-11-21T13:19:51.953Z,79.33
2022-11-21T13:22:38.435Z,79.46
2022-11-21T13:25:10.494Z,79.27
2022-11-21T13:27:42.355Z,79.19
2022-11-21T13:30:11.361Z,79.27
2022-11-21T13:32:47.708Z,79.58
2022-11-21T13:35:19.483Z,79.69
2022-11-21T13:38:03.695Z,79.75
2022-11-21T13:40:39.913Z,79.73
2022-11-21T13:43:32.488Z,79.44
2022-11-21T13:46:02.200Z,79.24
2022-11-21T13:48:36.762Z,79.01
2022-11-21T13:51:23.270Z,78.86
2022-11-21T13:54:14.581Z,78.38
2022-11-21T13:57:17.476Z,78.77
2022-11-21T14:00:20.135Z,78.71
2022-11-21T14:03:05.032Z,79.27
2022-11-21T14:05:53.484Z,79.72
2022-11-21T14:08:24.850Z,80.03
2022-11-21T14:10:54.936Z,80.43
2022-11-21T14:13:23.634Z,80.36
2022-11-21T14:16:23.096Z,80.47
2022-11-21T14:18:51.820Z,80.73
2022-11-21T14:21:27.272Z,80.86
2022-11-21T14:24:04.422Z,80.72
2022-11-21T14:26:43.876Z,80.77
2022-11-21T14:29:27.244Z,80.94
2022-11-21T14:31:55.872Z,81.25
2022-11-21T14:34:31.743Z,81.38
2022-11-21T14:37:07.480Z,81.45
2022-11-21T14:39:44.104Z,81.65
2022-11-21T14:42:15.555Z,81.69
2022-11-21T14:44:44.090Z,81.75
2022-11-21T14:47:23.567Z,81.51
2022-11-21T14:49:56.967Z,81.64
2022-11-21T14:52:31.771Z,81.68
2022-11-21T14:57:52.920Z,81.36
2022-11-21T15:03:24.039Z,81.77
2022-11-21T15:06:04.589Z,81.99
2022-11-21T15:11:28.253Z,82.22
2022-11-21T15:14:18.072Z,82.28
2022-11-21T15:16:51.825Z,82.26
2022-11-21T15:19:28.274Z,82.02
2022-11-21T15:21:58.593Z,81.91
2022-11-21T15:24:32.834Z,81.97
2022-11-21T15:27:01.014Z,82.07
2022-11-21T15:29:30.741Z,82.00
2022-11-21T15:32:16.716Z,82.12
2022-11-21T15:34:45.092Z,82.38
2022-11-21T15:37:17.511Z,82.63
2022-11-21T15:39:48.733Z,82.71
2022-11-21T15:42:32.348Z,82.38
2022-11-21T15:45:21.840Z,82.19
2022-11-21T15:47:49.985Z,82.18
2022-11-21T15:50:18.571Z,82.27
2022-11-21T15:52:51.257Z,82.45
2022-11-21T15:55:30.288Z,82.56
2022-11-21T15:57:58.330Z,82.61
2022-11-21T16:00:26.526Z,82.58
2022-11-21T16:02:54.431Z,82.50
2022-11-21T16:05:22.574Z,82.54
2022-11-21T16:07:50.488Z,82.55
2022-11-21T16:10:27.272Z,82.49
2022-11-21T16:12:56.312Z,82.26
2022-11-21T16:15:24.883Z,82.24
2022-11-21T16:17:52.998Z,82.25
2022-11-21T16:20:20.974Z,82.35
2022-11-21T16:22:50.021Z,82.55
2022-11-21T16:25:18.823Z,82.51
2022-11-21T16:27:47.177Z,82.65
2022-11-21T16:30:15.576Z,82.69
2022-11-21T16:32:43.649Z,82.81
2022-11-21T16:35:11.953Z,82.94
2022-11-21T16:37:40.203Z,82.88
2022-11-21T16:40:10.404Z,82.89
2022-11-21T16:42:38.600Z,83.01
2022-11-21T16:45:07.229Z,82.97
2022-11-21T16:47:37.520Z,83.23
2022-11-21T16:50:05.892Z,83.19
2022-11-21T16:52:35.679Z,83.31
2022-11-21T16:55:04.499Z,83.36
2022-11-21T16:57:33.684Z,83.31
2022-11-21T17:00:02.478Z,83.24
2022-11-21T17:02:30.468Z,83.01
2022-11-21T17:04:58.717Z,83.00
2022-11-21T17:07:26.748Z,83.02
2022-11-21T17:09:54.918Z,82.87
2022-11-21T17:12:23.550Z,82.63
2022-11-21T17:14:51.771Z,82.63
2022-11-21T17:17:20.315Z,82.45
2022-11-21T17:19:48.991Z,82.25
2022-11-21T17:22:23.061Z,82.23
2022-11-21T17:24:53.444Z,82.28
2022-11-21T17:27:23.463Z,82.29
2022-11-21T17:29:51.527Z,82.23
2022-11-21T17:32:19.470Z,82.19
2022-11-21T17:34:47.329Z,82.21
2022-11-21T17:37:15.227Z,82.32
2022-11-21T17:39:43.255Z,82.36
2022-11-21T17:42:11.280Z,82.44
2022-11-21T17:44:39.342Z,82.48
2022-11-21T17:47:07.280Z,82.57
2022-11-21T17:49:37.229Z,82.69
2022-11-21T17:52:06.560Z,82.70
2022-11-21T17:54:34.726Z,82.87
2022-11-21T17:57:02.843Z,83.04
2022-11-21T17:59:31.084Z,83.24
2022-11-21T18:01:59.579Z,83.36
2022-11-21T18:04:28.684Z,83.69
2022-11-21T18:06:56.842Z,83.98
2022-11-21T18:09:25.033Z,83.99
2022-11-21T18:11:53.157Z,84.13
2022-11-21T18:14:22.048Z,84.39
2022-11-21T18:16:53.411Z,84.62
2022-11-21T18:19:22.397Z,84.72
2022-11-21T18:21:50.318Z,84.78
2022-11-21T18:24:18.215Z,84.82
2022-11-21T18:26:47.132Z,84.51
2022-11-21T18:32:03.398Z,84.16
2022-11-21T18:34:31.503Z,84.10
2022-11-21T18:36:59.873Z,84.02
2022-11-21T18:39:28.426Z,83.96
2022-11-21T18:41:56.736Z,83.91
2022-11-21T18:44:24.707Z,83.97
2022-11-21T18:46:54.012Z,83.94
2022-11-21T18:49:21.884Z,84.05
2022-11-21T18:51:50.463Z,84.31
2022-11-21T18:54:18.640Z,84.52
2022-11-21T18:56:47.235Z,84.89
2022-11-21T18:59:15.806Z,85.09
2022-11-21T19:01:43.956Z,85.03
2022-11-21T19:04:12.359Z,85.18
2022-11-21T19:06:40.323Z,84.91
2022-11-21T19:09:08.461Z,84.98
2022-11-21T19:11:36.570Z,85.15
2022-11-21T19:14:04.860Z,85.27
2022-11-21T19:16:34.435Z,85.26
2022-11-21T19:21:58.966Z,85.16
2022-11-21T19:24:27.247Z,85.19
2022-11-21T19:26:55.381Z,85.20
2022-11-21T19:29:24.026Z,85.28
2022-11-21T19:31:52.084Z,85.26
2022-11-21T19:34:20.559Z,85.59
2022-11-21T19:36:50.668Z,85.51
2022-11-21T19:39:20.594Z,85.37
2022-11-21T19:41:49.689Z,85.28
2022-11-21T19:44:17.831Z,85.32
2022-11-21T19:46:45.725Z,85.21
2022-11-21T19:49:13.802Z,85.11
2022-11-21T19:51:42.202Z,84.93
2022-11-21T19:54:13.182Z,84.83
2022-11-21T19:56:41.399Z,84.67
2022-11-21T19:59:13.802Z,84.66
2022-11-21T20:01:42.251Z,84.69
2022-11-21T20:04:11.406Z,84.76
2022-11-21T20:06:42.151Z,84.76
2022-11-21T20:09:13.026Z,84.77
2022-11-21T20:11:42.221Z,84.68
2022-11-21T20:14:16.309Z,84.71
2022-11-21T20:16:49.225Z,84.85
2022-11-21T20:19:19.644Z,84.94
2022-11-21T20:21:48.025Z,84.95
2022-11-21T20:24:16.721Z,85.03
2022-11-21T20:26:45.396Z,85.10
2022-11-21T20:29:15.202Z,85.28
2022-11-21T20:31:44.512Z,85.32
2022-11-21T20:34:13.701Z,85.28
2022-11-21T20:36:43.418Z,85.37
2022-11-21T20:39:18.950Z,85.44
2022-11-21T20:41:48.376Z,85.45
2022-11-21T20:47:09.293Z,85.42
2022-11-21T20:49:37.365Z,85.46
2022-11-21T20:54:54.666Z,85.61
2022-11-21T20:57:22.896Z,85.48
2022-11-21T20:59:50.946Z,85.32
2022-11-21T21:02:19.023Z,85.33
2022-11-21T21:04:47.306Z,85.33
2022-11-21T21:07:15.548Z,85.37
2022-11-21T21:09:43.763Z,85.39
2022-11-21T21:12:11.715Z,85.47
2022-11-21T21:14:39.602Z,85.53
2022-11-21T21:17:07.501Z,85.44
2022-11-21T21:19:35.528Z,85.40
2022-11-21T21:22:05.266Z,85.51
2022-11-21T21:24:33.306Z,85.69
2022-11-21T21:27:01.482Z,85.62
2022-11-21T21:29:29.801Z,85.68
2022-11-21T21:31:58.264Z,85.88
2022-11-21T21:34:26.283Z,86.01
2022-11-21T21:36:54.583Z,85.90
2022-11-21T21:39:22.653Z,85.99
2022-11-21T21:41:51.140Z,86.01
2022-11-21T21:44:19.851Z,85.81
2022-11-21T21:46:48.331Z,86.02
2022-11-21T21:49:16.486Z,86.09
2022-11-21T21:51:45.280Z,86.22
2022-11-21T21:54:19.777Z,86.33
2022-11-21T21:56:48.489Z,86.31
2022-11-21T21:59:18.284Z,86.37
2022-11-21T22:01:46.677Z,86.58
2022-11-21T22:04:15.075Z,86.69
2022-11-21T22:06:43.168Z,86.67
2022-11-21T22:09:11.294Z,86.51
2022-11-21T22:11:39.644Z,86.42
2022-11-21T22:14:13.257Z,86.44
2022-11-21T22:16:42.690Z,86.51
2022-11-21T22:19:10.810Z,86.53
2022-11-21T22:21:39.654Z,86.53
2022-11-21T22:24:31.258Z,86.45
2022-11-21T22:26:59.447Z,86.49
2022-11-21T22:29:27.448Z,86.46
2022-11-21T22:31:55.692Z,86.46
2022-11-21T22:34:23.887Z,86.56
2022-11-21T22:36:52.033Z,86.59
2022-11-21T22:39:20.223Z,86.60
2022-11-21T22:41:48.295Z,86.55
2022-11-21T22:44:16.463Z,86.53
2022-11-21T22:46:44.935Z,86.45
2022-11-21T22:49:12.914Z,86.45
2022-11-21T22:51:40.875Z,86.36
2022-11-21T22:54:09.059Z,86.24
2022-11-21T22:56:37.020Z,86.01
2022-11-21T22:59:05.918Z,85.80
2022-11-21T23:01:35.159Z,85.58
2022-11-21T23:04:03.418Z,85.46
2022-11-21T23:06:31.776Z,85.52
2022-11-21T23:08:59.735Z,85.52
2022-11-21T23:11:36.278Z,85.48
2022-11-21T23:14:08.025Z,85.48
2022-11-21T23:16:36.150Z,85.64
2022-11-21T23:19:04.166Z,85.61
2022-11-21T23:21:32.392Z,85.64
2022-11-21T23:24:00.460Z,85.90
2022-11-21T23:26:28.636Z,86.05
2022-11-21T23:28:56.481Z,85.99
2022-11-21T23:31:24.576Z,85.81
2022-11-21T23:33:52.535Z,85.72
2022-11-21T23:36:20.589Z,85.83
2022-11-21T23:38:48.518Z,85.81
2022-11-21T23:41:16.555Z,85.92
2022-11-21T23:43:44.516Z,86.07
2022-11-21T23:46:12.519Z,86.13
2022-11-21T23:48:40.714Z,86.26
2022-11-21T23:51:08.876Z,86.16
2022-11-21T23:53:36.990Z,86.23
2022-11-21T23:56:06.004Z,86.44
2022-11-21T23:58:34.079Z,86.50
